sensor_id;sensor_type;location;lat;lon;timestamp;pressure;altitude;pressure_sealevel;temperature;humidity
68301;BME280;55146;47.468;18.806;2023-02-10T00:01:56;102216.41;;;-4.14;76.40
68301;BME280;55146;47.468;18.806;2023-02-10T00:04:22;102221.28;;;-4.19;76.32
68301;BME280;55146;47.468;18.806;2023-02-10T00:06:47;102218.88;;;-4.22;76.06
68301;BME280;55146;47.468;18.806;2023-02-10T00:09:14;102216.53;;;-4.16;75.83
68301;BME280;55146;47.468;18.806;2023-02-10T00:11:39;102219.81;;;-4.12;75.77
68301;BME280;55146;47.468;18.806;2023-02-10T00:14:25;102225.94;;;-4.10;75.84
68301;BME280;55146;47.468;18.806;2023-02-10T00:16:52;102222.87;;;-4.17;75.98
68301;BME280;55146;47.468;18.806;2023-02-10T00:19:22;102226.66;;;-4.19;75.75
68301;BME280;55146;47.468;18.806;2023-02-10T00:21:49;102226.94;;;-4.22;75.70
68301;BME280;55146;47.468;18.806;2023-02-10T00:24:14;102223.31;;;-4.32;75.91
68301;BME280;55146;47.468;18.806;2023-02-10T00:26:40;102225.50;;;-4.37;75.88
68301;BME280;55146;47.468;18.806;2023-02-10T00:29:05;102223.31;;;-4.43;76.02
68301;BME280;55146;47.468;18.806;2023-02-10T00:31:30;102227.81;;;-4.44;76.41
68301;BME280;55146;47.468;18.806;2023-02-10T00:33:56;102228.56;;;-4.42;76.63
68301;BME280;55146;47.468;18.806;2023-02-10T00:36:22;102225.88;;;-4.42;76.70
68301;BME280;55146;47.468;18.806;2023-02-10T00:38:50;102227.34;;;-4.49;76.71
68301;BME280;55146;47.468;18.806;2023-02-10T00:41:18;102225.03;;;-4.54;76.39
68301;BME280;55146;47.468;18.806;2023-02-10T00:43:44;102225.78;;;-4.63;76.72
68301;BME280;55146;47.468;18.806;2023-02-10T00:46:14;102213.94;;;-4.60;76.83
68301;BME280;55146;47.468;18.806;2023-02-10T00:48:39;102225.78;;;-4.52;76.91
68301;BME280;55146;47.468;18.806;2023-02-10T00:51:05;102231.16;;;-4.52;76.69
68301;BME280;55146;47.468;18.806;2023-02-10T00:53:31;102228.69;;;-4.55;76.38
68301;BME280;55146;47.468;18.806;2023-02-10T00:55:57;102216.25;;;-4.56;76.57
68301;BME280;55146;47.468;18.806;2023-02-10T00:58:23;102222.50;;;-4.66;77.25
68301;BME280;55146;47.468;18.806;2023-02-10T01:00:48;102220.66;;;-4.66;77.28
68301;BME280;55146;47.468;18.806;2023-02-10T01:03:14;102216.28;;;-4.67;76.76
68301;BME280;55146;47.468;18.806;2023-02-10T01:05:39;102213.84;;;-4.70;76.48
68301;BME280;55146;47.468;18.806;2023-02-10T01:08:05;102215.44;;;-4.78;76.54
68301;BME280;55146;47.468;18.806;2023-02-10T01:10:34;102202.38;;;-4.72;76.56
68301;BME280;55146;47.468;18.806;2023-02-10T01:13:01;102210.66;;;-4.75;76.79
68301;BME280;55146;47.468;18.806;2023-02-10T01:15:27;102219.94;;;-4.79;76.59
68301;BME280;55146;47.468;18.806;2023-02-10T01:17:52;102208.34;;;-4.79;76.27
68301;BME280;55146;47.468;18.806;2023-02-10T01:20:18;102205.53;;;-4.78;76.12
68301;BME280;55146;47.468;18.806;2023-02-10T01:22:43;102203.84;;;-4.79;75.92
68301;BME280;55146;47.468;18.806;2023-02-10T01:25:09;102203.47;;;-4.85;75.91
68301;BME280;55146;47.468;18.806;2023-02-10T01:27:34;102203.09;;;-4.92;76.48
68301;BME280;55146;47.468;18.806;2023-02-10T01:29:59;102194.94;;;-4.91;76.40
68301;BME280;55146;47.468;18.806;2023-02-10T01:32:25;102194.47;;;-4.96;76.17
68301;BME280;55146;47.468;18.806;2023-02-10T01:34:50;102199.94;;;-4.97;75.85
68301;BME280;55146;47.468;18.806;2023-02-10T01:37:16;102201.41;;;-4.93;75.96
68301;BME280;55146;47.468;18.806;2023-02-10T01:39:41;102210.94;;;-5.00;76.20
68301;BME280;55146;47.468;18.806;2023-02-10T01:42:10;102201.88;;;-4.99;76.35
68301;BME280;55146;47.468;18.806;2023-02-10T01:47:02;102194.69;;;-5.10;76.19
68301;BME280;55146;47.468;18.806;2023-02-10T01:49:30;102199.94;;;-5.08;76.01
68301;BME280;55146;47.468;18.806;2023-02-10T01:52:11;102200.44;;;-5.14;nan
68301;BME280;55146;47.468;18.806;2023-02-10T01:54:59;102194.94;;;-5.13;76.25
68301;BME280;55146;47.468;18.806;2023-02-10T01:57:25;102197.75;;;-5.14;75.98
68301;BME280;55146;47.468;18.806;2023-02-10T01:59:51;102193.25;;;-5.14;75.85
68301;BME280;55146;47.468;18.806;2023-02-10T02:02:18;102190.56;;;-5.14;75.84
68301;BME280;55146;47.468;18.806;2023-02-10T02:04:57;102196.28;;;-5.18;76.05
68301;BME280;55146;47.468;18.806;2023-02-10T02:07:26;102192.50;;;-5.27;76.07
68301;BME280;55146;47.468;18.806;2023-02-10T02:09:54;102196.63;;;-5.23;nan
68301;BME280;55146;47.468;18.806;2023-02-10T02:21:12;102194.19;;;-5.37;76.11
68301;BME280;55146;47.468;18.806;2023-02-10T02:27:04;102196.88;;;-5.37;75.70
68301;BME280;55146;47.468;18.806;2023-02-10T02:30:02;102194.78;;;-5.34;76.10
68301;BME280;55146;47.468;18.806;2023-02-10T02:32:39;102191.25;;;-5.34;75.84
68301;BME280;55146;47.468;18.806;2023-02-10T02:35:11;102191.12;;;-5.44;75.88
68301;BME280;55146;47.468;18.806;2023-02-10T02:37:41;102195.75;;;-5.46;76.07
68301;BME280;55146;47.468;18.806;2023-02-10T02:40:08;102189.81;;;-5.38;76.14
68301;BME280;55146;47.468;18.806;2023-02-10T02:42:33;102179.19;;;-5.51;76.14
68301;BME280;55146;47.468;18.806;2023-02-10T02:45:10;102181.50;;;-5.46;76.07
68301;BME280;55146;47.468;18.806;2023-02-10T02:50:26;102187.22;;;-5.51;76.38
68301;BME280;55146;47.468;18.806;2023-02-10T02:59:20;102175.53;;;-5.50;75.96
68301;BME280;55146;47.468;18.806;2023-02-10T03:01:57;102188.09;;;-5.39;76.13
68301;BME280;55146;47.468;18.806;2023-02-10T03:04:28;102189.53;;;-5.46;75.83
68301;BME280;55146;47.468;18.806;2023-02-10T03:06:54;102199.66;;;-5.50;75.52
68301;BME280;55146;47.468;18.806;2023-02-10T03:09:19;102192.81;;;-5.54;75.76
68301;BME280;55146;47.468;18.806;2023-02-10T03:11:44;102196.34;;;-5.53;76.29
68301;BME280;55146;47.468;18.806;2023-02-10T03:14:10;102195.47;;;-5.54;76.01
68301;BME280;55146;47.468;18.806;2023-02-10T03:16:35;102185.03;;;-5.57;75.83
68301;BME280;55146;47.468;18.806;2023-02-10T03:19:00;102191.47;;;-5.59;75.75
68301;BME280;55146;47.468;18.806;2023-02-10T03:21:26;102180.50;;;-5.56;75.57
68301;BME280;55146;47.468;18.806;2023-02-10T03:23:51;102183.19;;;-5.56;75.62
68301;BME280;55146;47.468;18.806;2023-02-10T03:26:17;102188.28;;;-5.64;75.76
68301;BME280;55146;47.468;18.806;2023-02-10T03:28:42;102187.44;;;-5.65;76.27
68301;BME280;55146;47.468;18.806;2023-02-10T03:31:08;102180.72;;;-5.71;76.05
68301;BME280;55146;47.468;18.806;2023-02-10T03:33:34;102182.66;;;-5.73;76.00
68301;BME280;55146;47.468;18.806;2023-02-10T03:36:00;102183.16;;;-5.67;76.09
68301;BME280;55146;47.468;18.806;2023-02-10T03:38:26;102190.47;;;-5.69;76.37
68301;BME280;55146;47.468;18.806;2023-02-10T03:40:53;102188.00;;;-5.73;76.16
68301;BME280;55146;47.468;18.806;2023-02-10T03:43:19;102181.75;;;-5.84;76.00
68301;BME280;55146;47.468;18.806;2023-02-10T03:45:45;102182.63;;;-5.84;75.87
68301;BME280;55146;47.468;18.806;2023-02-10T03:48:11;102184.44;;;-5.84;76.19
68301;BME280;55146;47.468;18.806;2023-02-10T03:50:36;102178.97;;;-5.83;76.39
68301;BME280;55146;47.468;18.806;2023-02-10T03:53:02;102186.88;;;-5.92;76.25
68301;BME280;55146;47.468;18.806;2023-02-10T03:55:28;102168.56;;;-6.09;76.60
68301;BME280;55146;47.468;18.806;2023-02-10T03:57:53;102158.09;;;-6.12;76.36
68301;BME280;55146;47.468;18.806;2023-02-10T04:00:19;102163.59;;;-6.03;76.42
68301;BME280;55146;47.468;18.806;2023-02-10T04:02:44;102162.16;;;-5.96;76.02
68301;BME280;55146;47.468;18.806;2023-02-10T04:05:10;102157.06;;;-5.99;75.78
68301;BME280;55146;47.468;18.806;2023-02-10T04:07:36;102161.19;;;-5.95;75.87
68301;BME280;55146;47.468;18.806;2023-02-10T04:10:03;102162.06;;;-5.94;75.88
68301;BME280;55146;47.468;18.806;2023-02-10T04:12:29;102160.72;;;-5.89;76.16
68301;BME280;55146;47.468;18.806;2023-02-10T04:14:54;102154.50;;;-5.89;76.19
68301;BME280;55146;47.468;18.806;2023-02-10T04:17:19;102157.88;;;-5.98;76.16
68301;BME280;55146;47.468;18.806;2023-02-10T04:19:45;102154.31;;;-6.10;75.90
68301;BME280;55146;47.468;18.806;2023-02-10T04:22:10;102154.66;;;-6.15;76.10
68301;BME280;55146;47.468;18.806;2023-02-10T04:24:36;102160.78;;;-6.12;76.71
68301;BME280;55146;47.468;18.806;2023-02-10T04:27:01;102166.84;;;-6.10;76.66
68301;BME280;55146;47.468;18.806;2023-02-10T04:29:26;102161.63;;;-6.12;76.34
68301;BME280;55146;47.468;18.806;2023-02-10T04:31:52;102166.84;;;-6.10;76.55
68301;BME280;55146;47.468;18.806;2023-02-10T04:34:17;102154.94;;;-6.06;76.37
68301;BME280;55146;47.468;18.806;2023-02-10T04:36:43;102169.06;;;-6.04;76.08
68301;BME280;55146;47.468;18.806;2023-02-10T04:39:08;102170.62;;;-6.13;76.23
68301;BME280;55146;47.468;18.806;2023-02-10T04:41:34;102176.88;;;-6.01;76.42
68301;BME280;55146;47.468;18.806;2023-02-10T04:43:59;102179.31;;;-5.98;76.54
68301;BME280;55146;47.468;18.806;2023-02-10T04:46:25;102185.31;;;-5.95;76.51
68301;BME280;55146;47.468;18.806;2023-02-10T04:48:50;102185.53;;;-5.98;76.18
68301;BME280;55146;47.468;18.806;2023-02-10T04:51:15;102193.34;;;-5.95;75.95
68301;BME280;55146;47.468;18.806;2023-02-10T04:53:41;102193.91;;;-6.02;76.90
68301;BME280;55146;47.468;18.806;2023-02-10T04:56:09;102203.25;;;-6.08;77.95
68301;BME280;55146;47.468;18.806;2023-02-10T04:58:34;102210.78;;;-6.13;77.76
68301;BME280;55146;47.468;18.806;2023-02-10T05:01:00;102210.50;;;-6.21;76.47
68301;BME280;55146;47.468;18.806;2023-02-10T05:03:25;102201.09;;;-6.27;75.68
68301;BME280;55146;47.468;18.806;2023-02-10T05:05:51;102200.34;;;-6.29;75.46
68301;BME280;55146;47.468;18.806;2023-02-10T05:08:18;102199.13;;;-6.36;75.15
68301;BME280;55146;47.468;18.806;2023-02-10T05:10:50;102202.47;;;-6.45;75.17
68301;BME280;55146;47.468;18.806;2023-02-10T05:13:16;102208.88;;;-6.47;75.38
68301;BME280;55146;47.468;18.806;2023-02-10T05:15:41;102207.91;;;-6.46;76.04
68301;BME280;55146;47.468;18.806;2023-02-10T05:18:07;102196.81;;;-6.53;76.08
68301;BME280;55146;47.468;18.806;2023-02-10T05:20:32;102207.09;;;-6.60;75.99
68301;BME280;55146;47.468;18.806;2023-02-10T05:22:58;102201.00;;;-6.49;75.67
68301;BME280;55146;47.468;18.806;2023-02-10T05:25:23;102216.63;;;-6.56;76.21
68301;BME280;55146;47.468;18.806;2023-02-10T05:27:49;102214.47;;;-6.50;76.67
68301;BME280;55146;47.468;18.806;2023-02-10T05:30:14;102214.47;;;-6.50;76.48
68301;BME280;55146;47.468;18.806;2023-02-10T05:32:41;102215.22;;;-6.48;76.17
68301;BME280;55146;47.468;18.806;2023-02-10T05:35:07;102212.56;;;-6.48;75.80
68301;BME280;55146;47.468;18.806;2023-02-10T05:37:32;102214.38;;;-6.49;75.50
68301;BME280;55146;47.468;18.806;2023-02-10T05:39:58;102220.37;;;-6.58;76.09
68301;BME280;55146;47.468;18.806;2023-02-10T05:42:23;102222.44;;;-6.62;76.20
68301;BME280;55146;47.468;18.806;2023-02-10T05:44:48;102238.50;;;-6.62;76.10
68301;BME280;55146;47.468;18.806;2023-02-10T05:47:14;102237.19;;;-6.56;76.26
68301;BME280;55146;47.468;18.806;2023-02-10T05:49:39;102229.56;;;-6.49;76.31
68301;BME280;55146;47.468;18.806;2023-02-10T05:52:04;102235.03;;;-6.51;75.99
68301;BME280;55146;47.468;18.806;2023-02-10T05:54:30;102227.84;;;-6.50;75.56
68301;BME280;55146;47.468;18.806;2023-02-10T05:56:55;102218.56;;;-6.58;75.57
68301;BME280;55146;47.468;18.806;2023-02-10T05:59:21;102227.13;;;-6.65;75.93
68301;BME280;55146;47.468;18.806;2023-02-10T06:01:46;102223.28;;;-6.61;76.14
68301;BME280;55146;47.468;18.806;2023-02-10T06:04:12;102224.25;;;-6.62;76.89
68301;BME280;55146;47.468;18.806;2023-02-10T06:06:37;102221.78;;;-6.65;76.53
68301;BME280;55146;47.468;18.806;2023-02-10T06:09:03;102219.56;;;-6.84;77.24
68301;BME280;55146;47.468;18.806;2023-02-10T06:11:29;102215.84;;;-6.81;77.34
68301;BME280;55146;47.468;18.806;2023-02-10T06:13:54;102222.16;;;-6.95;77.62
68301;BME280;55146;47.468;18.806;2023-02-10T06:16:19;102209.44;;;-6.91;77.53
68301;BME280;55146;47.468;18.806;2023-02-10T06:18:45;102226.56;;;-6.94;77.58
68301;BME280;55146;47.468;18.806;2023-02-10T06:21:13;102223.66;;;-6.91;78.08
68301;BME280;55146;47.468;18.806;2023-02-10T06:23:38;102224.81;;;-6.82;78.25
68301;BME280;55146;47.468;18.806;2023-02-10T06:26:04;102224.03;;;-6.72;78.12
68301;BME280;55146;47.468;18.806;2023-02-10T06:28:29;102234.09;;;-6.63;77.87
68301;BME280;55146;47.468;18.806;2023-02-10T06:30:55;102248.44;;;-6.64;79.65
68301;BME280;55146;47.468;18.806;2023-02-10T06:33:20;102255.81;;;-6.55;79.39
68301;BME280;55146;47.468;18.806;2023-02-10T06:35:46;102257.19;;;-6.49;79.30
68301;BME280;55146;47.468;18.806;2023-02-10T06:38:11;102260.72;;;-6.48;79.51
68301;BME280;55146;47.468;18.806;2023-02-10T06:40:37;102266.03;;;-6.36;79.25
68301;BME280;55146;47.468;18.806;2023-02-10T06:43:02;102269.19;;;-6.18;78.77
68301;BME280;55146;47.468;18.806;2023-02-10T06:45:28;102267.87;;;-6.12;79.21
68301;BME280;55146;47.468;18.806;2023-02-10T06:47:54;102275.97;;;-6.01;79.10
68301;BME280;55146;47.468;18.806;2023-02-10T06:50:20;102278.72;;;-5.90;78.12
68301;BME280;55146;47.468;18.806;2023-02-10T06:52:46;102272.03;;;-5.74;77.23
68301;BME280;55146;47.468;18.806;2023-02-10T06:55:11;102259.56;;;-5.62;76.98
68301;BME280;55146;47.468;18.806;2023-02-10T06:57:37;102272.53;;;-5.45;76.76
68301;BME280;55146;47.468;18.806;2023-02-10T07:00:08;102267.00;;;-5.19;76.49
68301;BME280;55146;47.468;18.806;2023-02-10T07:02:35;102268.25;;;-4.90;75.46
68301;BME280;55146;47.468;18.806;2023-02-10T07:05:01;102264.84;;;-4.70;74.78
68301;BME280;55146;47.468;18.806;2023-02-10T07:07:29;102260.69;;;-4.52;74.64
68301;BME280;55146;47.468;18.806;2023-02-10T07:09:55;102266.03;;;-4.29;73.82
68301;BME280;55146;47.468;18.806;2023-02-10T07:12:20;102267.94;;;-4.09;73.38
68301;BME280;55146;47.468;18.806;2023-02-10T07:14:46;102279.34;;;-3.85;72.73
68301;BME280;55146;47.468;18.806;2023-02-10T07:17:11;102269.22;;;-3.60;71.64
68301;BME280;55146;47.468;18.806;2023-02-10T07:19:37;102271.47;;;-3.45;70.71
68301;BME280;55146;47.468;18.806;2023-02-10T07:22:02;102275.88;;;-3.23;70.51
68301;BME280;55146;47.468;18.806;2023-02-10T07:24:30;102281.06;;;-3.10;69.94
68301;BME280;55146;47.468;18.806;2023-02-10T07:26:56;102276.66;;;-2.91;70.35
68301;BME280;55146;47.468;18.806;2023-02-10T07:29:22;102274.97;;;-2.61;69.03
68301;BME280;55146;47.468;18.806;2023-02-10T07:31:47;102271.63;;;-2.34;68.87
68301;BME280;55146;47.468;18.806;2023-02-10T07:34:12;102262.44;;;-2.32;68.26
68301;BME280;55146;47.468;18.806;2023-02-10T07:36:38;102250.13;;;-2.25;68.46
68301;BME280;55146;47.468;18.806;2023-02-10T07:39:03;102242.19;;;-2.26;67.79
68301;BME280;55146;47.468;18.806;2023-02-10T07:41:28;102242.47;;;-2.69;69.23
68301;BME280;55146;47.468;18.806;2023-02-10T07:43:54;102243.72;;;-2.73;70.99
68301;BME280;55146;47.468;18.806;2023-02-10T07:46:19;102244.13;;;-2.38;71.71
68301;BME280;55146;47.468;18.806;2023-02-10T07:48:44;102256.00;;;-1.91;71.63
68301;BME280;55146;47.468;18.806;2023-02-10T07:51:10;102258.84;;;-1.54;70.83
68301;BME280;55146;47.468;18.806;2023-02-10T07:53:35;102259.12;;;-1.18;70.42
68301;BME280;55146;47.468;18.806;2023-02-10T07:56:03;102265.00;;;-0.76;70.01
68301;BME280;55146;47.468;18.806;2023-02-10T07:58:28;102270.97;;;-0.46;69.19
68301;BME280;55146;47.468;18.806;2023-02-10T08:00:55;102258.72;;;-0.13;68.07
68301;BME280;55146;47.468;18.806;2023-02-10T08:03:20;102266.78;;;0.15;67.03
68301;BME280;55146;47.468;18.806;2023-02-10T08:05:46;102271.44;;;0.40;65.39
68301;BME280;55146;47.468;18.806;2023-02-10T08:08:14;102272.69;;;0.46;64.99
68301;BME280;55146;47.468;18.806;2023-02-10T08:10:40;102276.09;;;0.65;65.70
68301;BME280;55146;47.468;18.806;2023-02-10T08:13:06;102280.72;;;0.73;66.43
68301;BME280;55146;47.468;18.806;2023-02-10T08:15:31;102283.25;;;0.74;67.13
68301;BME280;55146;47.468;18.806;2023-02-10T08:18:00;102289.31;;;0.68;68.03
68301;BME280;55146;47.468;18.806;2023-02-10T08:20:26;102291.63;;;0.63;68.89
68301;BME280;55146;47.468;18.806;2023-02-10T08:22:55;102285.44;;;0.71;68.67
68301;BME280;55146;47.468;18.806;2023-02-10T08:25:21;102283.66;;;0.79;68.91
68301;BME280;55146;47.468;18.806;2023-02-10T08:27:47;102284.84;;;1.03;68.09
68301;BME280;55146;47.468;18.806;2023-02-10T08:30:13;102283.53;;;1.07;68.21
68301;BME280;55146;47.468;18.806;2023-02-10T08:32:38;102285.38;;;1.06;67.84
68301;BME280;55146;47.468;18.806;2023-02-10T08:35:04;102278.59;;;1.28;66.56
68301;BME280;55146;47.468;18.806;2023-02-10T08:37:29;102278.16;;;1.41;64.92
68301;BME280;55146;47.468;18.806;2023-02-10T08:39:55;102286.31;;;1.49;65.95
68301;BME280;55146;47.468;18.806;2023-02-10T08:42:21;102283.34;;;1.60;66.31
68301;BME280;55146;47.468;18.806;2023-02-10T08:44:46;102283.72;;;1.73;64.67
68301;BME280;55146;47.468;18.806;2023-02-10T08:47:11;102286.53;;;1.89;64.82
68301;BME280;55146;47.468;18.806;2023-02-10T08:49:40;102283.34;;;2.02;64.79
68301;BME280;55146;47.468;18.806;2023-02-10T08:52:05;102285.41;;;2.16;64.22
68301;BME280;55146;47.468;18.806;2023-02-10T08:54:31;102285.44;;;2.24;63.39
68301;BME280;55146;47.468;18.806;2023-02-10T08:56:56;102280.03;;;2.32;62.49
68301;BME280;55146;47.468;18.806;2023-02-10T08:59:22;102282.41;;;2.35;61.60
68301;BME280;55146;47.468;18.806;2023-02-10T09:01:47;102273.06;;;2.30;62.22
68301;BME280;55146;47.468;18.806;2023-02-10T09:04:13;102277.31;;;2.32;62.30
68301;BME280;55146;47.468;18.806;2023-02-10T09:06:40;102279.88;;;2.42;62.29
68301;BME280;55146;47.468;18.806;2023-02-10T09:09:12;102272.59;;;2.34;62.12
68301;BME280;55146;47.468;18.806;2023-02-10T09:11:39;102272.56;;;2.42;62.98
68301;BME280;55146;47.468;18.806;2023-02-10T09:14:05;102276.66;;;2.55;62.41
68301;BME280;55146;47.468;18.806;2023-02-10T09:16:30;102267.87;;;2.77;61.05
68301;BME280;55146;47.468;18.806;2023-02-10T09:18:55;102272.59;;;2.91;60.46
68301;BME280;55146;47.468;18.806;2023-02-10T09:21:21;102270.56;;;2.93;61.55
68301;BME280;55146;47.468;18.806;2023-02-10T09:23:46;102271.59;;;3.00;61.81
68301;BME280;55146;47.468;18.806;2023-02-10T09:26:12;102281.25;;;3.19;63.85
68301;BME280;55146;47.468;18.806;2023-02-10T09:28:38;102273.53;;;3.47;61.73
68301;BME280;55146;47.468;18.806;2023-02-10T09:31:08;102270.56;;;3.73;59.53
68301;BME280;55146;47.468;18.806;2023-02-10T09:33:34;102263.22;;;3.81;57.50
68301;BME280;55146;47.468;18.806;2023-02-10T09:36:02;102254.34;;;3.87;55.88
68301;BME280;55146;47.468;18.806;2023-02-10T09:38:28;102255.69;;;3.91;57.09
68301;BME280;55146;47.468;18.806;2023-02-10T09:41:51;102258.72;;;3.96;55.37
68301;BME280;55146;47.468;18.806;2023-02-10T09:44:23;102258.28;;;4.16;55.35
68301;BME280;55146;47.468;18.806;2023-02-10T09:54:28;102270.41;;;4.59;53.74
68301;BME280;55146;47.468;18.806;2023-02-10T09:57:00;102264.31;;;4.79;52.19
68301;BME280;55146;47.468;18.806;2023-02-10T09:59:27;102260.09;;;4.92;51.87
68301;BME280;55146;47.468;18.806;2023-02-10T10:02:00;102261.00;;;5.21;50.70
68301;BME280;55146;47.468;18.806;2023-02-10T10:04:29;102256.66;;;5.12;49.21
68301;BME280;55146;47.468;18.806;2023-02-10T10:07:27;102261.47;;;5.10;49.18
68301;BME280;55146;47.468;18.806;2023-02-10T10:10:24;102250.00;;;5.15;48.95
68301;BME280;55146;47.468;18.806;2023-02-10T10:12:53;102259.59;;;4.88;48.65
68301;BME280;55146;47.468;18.806;2023-02-10T10:15:19;102254.78;;;4.75;50.01
68301;BME280;55146;47.468;18.806;2023-02-10T10:21:19;102256.81;;;4.96;50.56
68301;BME280;55146;47.468;18.806;2023-02-10T10:26:50;102243.91;;;5.27;49.26
68301;BME280;55146;47.468;18.806;2023-02-10T10:32:15;102247.41;;;5.36;50.12
68301;BME280;55146;47.468;18.806;2023-02-10T10:34:51;102242.03;;;5.43;49.88
68301;BME280;55146;47.468;18.806;2023-02-10T10:37:21;102244.28;;;5.54;49.38
68301;BME280;55146;47.468;18.806;2023-02-10T10:40:07;102240.03;;;5.66;49.99
68301;BME280;55146;47.468;18.806;2023-02-10T10:42:46;102235.53;;;5.88;47.90
68301;BME280;55146;47.468;18.806;2023-02-10T10:45:16;102230.91;;;5.88;46.88
68301;BME280;55146;47.468;18.806;2023-02-10T10:47:46;102222.50;;;5.75;46.11
68301;BME280;55146;47.468;18.806;2023-02-10T10:50:18;102218.97;;;5.45;46.89
68301;BME280;55146;47.468;18.806;2023-02-10T10:52:45;102205.22;;;5.53;47.78
68301;BME280;55146;47.468;18.806;2023-02-10T10:55:21;102203.53;;;5.52;46.09
68301;BME280;55146;47.468;18.806;2023-02-10T10:57:48;102194.09;;;5.25;46.39
68301;BME280;55146;47.468;18.806;2023-02-10T11:00:25;102192.97;;;5.20;45.93
68301;BME280;55146;47.468;18.806;2023-02-10T11:03:02;102192.13;;;5.05;46.38
68301;BME280;55146;47.468;18.806;2023-02-10T11:05:36;102200.56;;;4.95;46.88
68301;BME280;55146;47.468;18.806;2023-02-10T11:08:04;102189.41;;;5.05;46.92
68301;BME280;55146;47.468;18.806;2023-02-10T11:10:38;102190.06;;;5.07;47.78
68301;BME280;55146;47.468;18.806;2023-02-10T11:13:22;102181.03;;;5.50;46.53
68301;BME280;55146;47.468;18.806;2023-02-10T11:15:59;102179.25;;;5.43;45.49
68301;BME280;55146;47.468;18.806;2023-02-10T11:18:26;102181.03;;;5.50;45.42
68301;BME280;55146;47.468;18.806;2023-02-10T11:20:58;102186.63;;;5.78;45.01
68301;BME280;55146;47.468;18.806;2023-02-10T11:23:25;102183.66;;;5.73;44.91
68301;BME280;55146;47.468;18.806;2023-02-10T11:26:06;102178.66;;;5.91;45.63
68301;BME280;55146;47.468;18.806;2023-02-10T11:28:33;102180.34;;;5.92;45.17
68301;BME280;55146;47.468;18.806;2023-02-10T11:31:19;102191.38;;;6.05;45.16
68301;BME280;55146;47.468;18.806;2023-02-10T11:34:02;102191.62;;;6.25;45.34
68301;BME280;55146;47.468;18.806;2023-02-10T11:36:37;102184.78;;;6.36;44.69
68301;BME280;55146;47.468;18.806;2023-02-10T11:39:05;102177.03;;;6.39;44.98
68301;BME280;55146;47.468;18.806;2023-02-10T11:41:32;102184.84;;;6.42;44.88
68301;BME280;55146;47.468;18.806;2023-02-10T11:43:59;102181.44;;;6.62;44.86
68301;BME280;55146;47.468;18.806;2023-02-10T11:46:27;102173.91;;;6.64;43.77
68301;BME280;55146;47.468;18.806;2023-02-10T11:48:58;102161.44;;;6.82;44.43
68301;BME280;55146;47.468;18.806;2023-02-10T11:51:23;102153.81;;;7.06;44.60
68301;BME280;55146;47.468;18.806;2023-02-10T11:53:50;102153.59;;;7.07;43.10
68301;BME280;55146;47.468;18.806;2023-02-10T11:56:26;102150.91;;;7.14;42.27
68301;BME280;55146;47.468;18.806;2023-02-10T12:05:04;102132.09;;;7.04;43.03
68301;BME280;55146;47.468;18.806;2023-02-10T12:07:51;102130.34;;;7.24;43.53
68301;BME280;55146;47.468;18.806;2023-02-10T12:10:40;102128.59;;;7.17;41.86
68301;BME280;55146;47.468;18.806;2023-02-10T12:15:53;102112.72;;;7.34;42.53
68301;BME280;55146;47.468;18.806;2023-02-10T12:21:08;102104.63;;;7.19;42.42
68301;BME280;55146;47.468;18.806;2023-02-10T12:26:39;102100.53;;;7.43;41.63
68301;BME280;55146;47.468;18.806;2023-02-10T12:34:38;102092.94;;;6.97;42.38
68301;BME280;55146;47.468;18.806;2023-02-10T12:37:17;102087.63;;;6.89;42.70
68301;BME280;55146;47.468;18.806;2023-02-10T12:40:10;102090.63;;;7.01;43.52
68301;BME280;55146;47.468;18.806;2023-02-10T12:45:42;102094.00;;;7.44;43.10
68301;BME280;55146;47.468;18.806;2023-02-10T12:54:01;102081.81;;;7.05;42.83
68301;BME280;55146;47.468;18.806;2023-02-10T12:56:38;102080.87;;;6.91;43.05
68301;BME280;55146;47.468;18.806;2023-02-10T12:59:17;102088.75;;;7.01;43.99
68301;BME280;55146;47.468;18.806;2023-02-10T13:01:51;102084.28;;;6.94;44.18
68301;BME280;55146;47.468;18.806;2023-02-10T13:04:26;102089.41;;;7.03;43.47
68301;BME280;55146;47.468;18.806;2023-02-10T13:09:40;102095.34;;;7.13;43.99
68301;BME280;55146;47.468;18.806;2023-02-10T13:14:36;102092.94;;;6.97;42.54
68301;BME280;55146;47.468;18.806;2023-02-10T13:17:04;102097.75;;;6.95;43.80
68301;BME280;55146;47.468;18.806;2023-02-10T13:22:17;102085.97;;;6.95;45.26
68301;BME280;55146;47.468;18.806;2023-02-10T13:24:44;102083.94;;;6.75;44.37
68301;BME280;55146;47.468;18.806;2023-02-10T13:27:33;102084.56;;;6.71;44.75
68301;BME280;55146;47.468;18.806;2023-02-10T13:35:30;102076.59;;;6.76;44.08
68301;BME280;55146;47.468;18.806;2023-02-10T13:37:59;102071.97;;;6.76;43.69
68301;BME280;55146;47.468;18.806;2023-02-10T13:40:47;102066.59;;;6.62;44.75
68301;BME280;55146;47.468;18.806;2023-02-10T13:45:50;102071.97;;;6.48;45.79
68301;BME280;55146;47.468;18.806;2023-02-10T13:48:31;102075.81;;;6.54;45.50
68301;BME280;55146;47.468;18.806;2023-02-10T13:51:03;102079.97;;;6.50;44.74
68301;BME280;55146;47.468;18.806;2023-02-10T14:06:43;102066.31;;;6.50;44.88
68301;BME280;55146;47.468;18.806;2023-02-10T14:12:01;102067.78;;;6.25;44.73
68301;BME280;55146;47.468;18.806;2023-02-10T14:14:28;102067.28;;;6.15;45.26
68301;BME280;55146;47.468;18.806;2023-02-10T14:17:14;102064.06;;;6.04;45.57
68301;BME280;55146;47.468;18.806;2023-02-10T14:19:47;102067.84;;;6.03;45.44
68301;BME280;55146;47.468;18.806;2023-02-10T14:24:59;102084.28;;;5.89;46.03
68301;BME280;55146;47.468;18.806;2023-02-10T14:27:27;102086.84;;;5.76;46.30
68301;BME280;55146;47.468;18.806;2023-02-10T14:30:18;102084.50;;;5.73;46.49
68301;BME280;55146;47.468;18.806;2023-02-10T14:32:45;102079.47;;;5.76;47.01
68301;BME280;55146;47.468;18.806;2023-02-10T14:35:22;102081.37;;;5.76;46.75